sensor_id;sensor_type;location;lat;lon;timestamp;pressure;altitude;pressure_sealevel;temperature;humidity
40998;BME280;26740;45.944;12.480;2024-02-23T00:02:04;100138.59;;;8.72;100.00
40998;BME280;26740;45.944;12.480;2024-02-23T00:04:30;100127.97;;;8.64;100.00
40998;BME280;26740;45.944;12.480;2024-02-23T00:06:56;100127.66;;;8.60;100.00
40998;BME280;26740;45.944;12.480;2024-02-23T00:09:22;100130.03;;;8.51;100.00
40998;BME280;26740;45.944;12.480;2024-02-23T00:11:47;100128.66;;;8.54;100.00
40998;BME280;26740;45.944;12.480;2024-02-23T00:14:15;100126.28;;;8.63;100.00
40998;BME280;26740;45.944;12.480;2024-02-23T00:16:43;100124.22;;;8.75;100.00
40998;BME280;26740;45.944;12.480;2024-02-23T00:19:09;100125.00;;;8.70;100.00
40998;BME280;26740;45.944;12.480;2024-02-23T00:21:38;100118.97;;;8.73;100.00
40998;BME280;26740;45.944;12.480;2024-02-23T00:24:05;100119.28;;;8.77;100.00
40998;BME280;26740;45.944;12.480;2024-02-23T00:26:31;100122.06;;;8.77;100.00
40998;BME280;26740;45.944;12.480;2024-02-23T00:28:57;100121.63;;;8.90;100.00
40998;BME280;26740;45.944;12.480;2024-02-23T00:31:23;100125.47;;;8.84;100.00
40998;BME280;26740;45.944;12.480;2024-02-23T00:33:48;100133.03;;;8.94;100.00
40998;BME280;26740;45.944;12.480;2024-02-23T00:36:14;100133.50;;;8.64;100.00
40998;BME280;26740;45.944;12.480;2024-02-23T00:38:40;100117.72;;;8.64;100.00
40998;BME280;26740;45.944;12.480;2024-02-23T00:41:05;100109.81;;;8.73;100.00
40998;BME280;26740;45.944;12.480;2024-02-23T00:43:40;100109.88;;;8.78;100.00
40998;BME280;26740;45.944;12.480;2024-02-23T00:46:07;100110.56;;;8.90;100.00
40998;BME280;26740;45.944;12.480;2024-02-23T00:48:33;100103.63;;;8.88;100.00
40998;BME280;26740;45.944;12.480;2024-02-23T00:50:58;100106.91;;;8.85;100.00
40998;BME280;26740;45.944;12.480;2024-02-23T00:53:24;100099.69;;;8.84;100.00
40998;BME280;26740;45.944;12.480;2024-02-23T00:55:50;100101.63;;;8.83;100.00
40998;BME280;26740;45.944;12.480;2024-02-23T00:58:15;100109.47;;;8.91;100.00
40998;BME280;26740;45.944;12.480;2024-02-23T01:00:41;100092.28;;;8.89;100.00
40998;BME280;26740;45.944;12.480;2024-02-23T01:03:07;100101.81;;;8.77;100.00
40998;BME280;26740;45.944;12.480;2024-02-23T01:05:33;100104.25;;;8.73;100.00
40998;BME280;26740;45.944;12.480;2024-02-23T01:07:58;100103.75;;;8.76;100.00
40998;BME280;26740;45.944;12.480;2024-02-23T01:10:24;100093.72;;;8.70;100.00
40998;BME280;26740;45.944;12.480;2024-02-23T01:12:49;100086.56;;;8.52;100.00
40998;BME280;26740;45.944;12.480;2024-02-23T01:15:15;100079.56;;;8.66;100.00
40998;BME280;26740;45.944;12.480;2024-02-23T01:17:41;100077.44;;;8.73;100.00
40998;BME280;26740;45.944;12.480;2024-02-23T01:20:07;100077.38;;;8.46;100.00
40998;BME280;26740;45.944;12.480;2024-02-23T01:22:32;100062.81;;;8.34;100.00
40998;BME280;26740;45.944;12.480;2024-02-23T01:24:58;100064.19;;;8.53;100.00
40998;BME280;26740;45.944;12.480;2024-02-23T01:27:23;100063.50;;;8.63;100.00
40998;BME280;26740;45.944;12.480;2024-02-23T01:29:49;100054.69;;;8.71;100.00
40998;BME280;26740;45.944;12.480;2024-02-23T01:32:15;100047.56;;;8.76;100.00
40998;BME280;26740;45.944;12.480;2024-02-23T01:34:40;100041.13;;;8.70;100.00
40998;BME280;26740;45.944;12.480;2024-02-23T01:37:06;100032.41;;;8.56;100.00
40998;BME280;26740;45.944;12.480;2024-02-23T01:39:32;100023.19;;;8.50;100.00
40998;BME280;26740;45.944;12.480;2024-02-23T01:41:57;100027.84;;;8.45;100.00
40998;BME280;26740;45.944;12.480;2024-02-23T01:44:23;100020.50;;;8.56;100.00
40998;BME280;26740;45.944;12.480;2024-02-23T01:46:50;100028.78;;;8.56;100.00
40998;BME280;26740;45.944;12.480;2024-02-23T01:49:16;100016.06;;;8.54;100.00
40998;BME280;26740;45.944;12.480;2024-02-23T01:51:42;100007.03;;;8.64;100.00
40998;BME280;26740;45.944;12.480;2024-02-23T01:54:08;100003.19;;;8.65;100.00
40998;BME280;26740;45.944;12.480;2024-02-23T01:56:35;99998.22;;;8.67;100.00
40998;BME280;26740;45.944;12.480;2024-02-23T01:59:02;99994.00;;;8.60;100.00
40998;BME280;26740;45.944;12.480;2024-02-23T02:01:30;99984.53;;;8.56;100.00
40998;BME280;26740;45.944;12.480;2024-02-23T02:03:56;99983.75;;;8.60;100.00
40998;BME280;26740;45.944;12.480;2024-02-23T02:06:23;99982.25;;;8.47;100.00
40998;BME280;26740;45.944;12.480;2024-02-23T02:08:49;99976.75;;;8.52;100.00
40998;BME280;26740;45.944;12.480;2024-02-23T02:11:14;99977.06;;;8.56;100.00
40998;BME280;26740;45.944;12.480;2024-02-23T02:13:40;99973.69;;;8.49;100.00
40998;BME280;26740;45.944;12.480;2024-02-23T02:16:06;99970.69;;;8.56;100.00
40998;BME280;26740;45.944;12.480;2024-02-23T02:18:32;99960.84;;;8.65;100.00
40998;BME280;26740;45.944;12.480;2024-02-23T02:20:58;99956.69;;;8.67;100.00
40998;BME280;26740;45.944;12.480;2024-02-23T02:23:24;99963.50;;;8.54;100.00
40998;BME280;26740;45.944;12.480;2024-02-23T02:25:56;99954.31;;;8.49;100.00
40998;BME280;26740;45.944;12.480;2024-02-23T02:28:22;99957.41;;;8.52;100.00
40998;BME280;26740;45.944;12.480;2024-02-23T02:30:49;99950.44;;;8.50;100.00
40998;BME280;26740;45.944;12.480;2024-02-23T02:33:15;99937.53;;;8.61;100.00
40998;BME280;26740;45.944;12.480;2024-02-23T02:35:40;99949.00;;;8.75;100.00
40998;BME280;26740;45.944;12.480;2024-02-23T02:38:06;99944.59;;;8.73;100.00
40998;BME280;26740;45.944;12.480;2024-02-23T02:40:32;99932.50;;;8.52;100.00
40998;BME280;26740;45.944;12.480;2024-02-23T02:42:58;99925.75;;;8.70;100.00
40998;BME280;26740;45.944;12.480;2024-02-23T02:45:23;99919.09;;;8.71;100.00
40998;BME280;26740;45.944;12.480;2024-02-23T02:47:49;99916.00;;;8.68;100.00
40998;BME280;26740;45.944;12.480;2024-02-23T02:50:16;99909.13;;;8.70;100.00
40998;BME280;26740;45.944;12.480;2024-02-23T02:52:42;99912.41;;;8.67;100.00
40998;BME280;26740;45.944;12.480;2024-02-23T02:55:08;99900.25;;;8.68;100.00
40998;BME280;26740;45.944;12.480;2024-02-23T02:57:34;99909.69;;;8.72;100.00
40998;BME280;26740;45.944;12.480;2024-02-23T03:00:04;99900.88;;;8.76;100.00
40998;BME280;26740;45.944;12.480;2024-02-23T03:02:34;99905.25;;;8.71;100.00
40998;BME280;26740;45.944;12.480;2024-02-23T03:05:00;99904.69;;;8.69;100.00
40998;BME280;26740;45.944;12.480;2024-02-23T03:07:26;99905.28;;;8.77;100.00
40998;BME280;26740;45.944;12.480;2024-02-23T03:09:51;99894.22;;;8.77;100.00
40998;BME280;26740;45.944;12.480;2024-02-23T03:12:18;99889.53;;;8.77;100.00
40998;BME280;26740;45.944;12.480;2024-02-23T03:14:44;99882.28;;;8.71;100.00
40998;BME280;26740;45.944;12.480;2024-02-23T03:17:09;99893.03;;;8.67;100.00
40998;BME280;26740;45.944;12.480;2024-02-23T03:19:36;99894.13;;;8.66;100.00
40998;BME280;26740;45.944;12.480;2024-02-23T03:22:02;99895.09;;;8.50;100.00
40998;BME280;26740;45.944;12.480;2024-02-23T03:24:27;99891.50;;;8.49;100.00
40998;BME280;26740;45.944;12.480;2024-02-23T03:26:53;99892.19;;;8.40;100.00
40998;BME280;26740;45.944;12.480;2024-02-23T03:29:19;99888.81;;;8.32;100.00
40998;BME280;26740;45.944;12.480;2024-02-23T03:31:45;99888.78;;;8.54;100.00
40998;BME280;26740;45.944;12.480;2024-02-23T03:34:11;99875.25;;;8.58;100.00
40998;BME280;26740;45.944;12.480;2024-02-23T03:36:38;99874.66;;;8.51;100.00
40998;BME280;26740;45.944;12.480;2024-02-23T03:39:04;99875.44;;;8.46;100.00
40998;BME280;26740;45.944;12.480;2024-02-23T03:41:29;99867.94;;;8.47;100.00
40998;BME280;26740;45.944;12.480;2024-02-23T03:43:55;99871.31;;;8.49;100.00
40998;BME280;26740;45.944;12.480;2024-02-23T03:46:21;99869.13;;;8.51;100.00
40998;BME280;26740;45.944;12.480;2024-02-23T03:48:47;99873.28;;;8.53;100.00
40998;BME280;26740;45.944;12.480;2024-02-23T03:51:12;99871.38;;;8.59;100.00
40998;BME280;26740;45.944;12.480;2024-02-23T03:53:38;99868.56;;;8.54;100.00
40998;BME280;26740;45.944;12.480;2024-02-23T03:56:04;99861.16;;;8.60;100.00
40998;BME280;26740;45.944;12.480;2024-02-23T03:58:30;99842.44;;;8.72;100.00
40998;BME280;26740;45.944;12.480;2024-02-23T04:00:55;99838.91;;;8.82;100.00
40998;BME280;26740;45.944;12.480;2024-02-23T04:03:21;99842.31;;;8.57;100.00
40998;BME280;26740;45.944;12.480;2024-02-23T04:05:47;99843.72;;;8.59;100.00
40998;BME280;26740;45.944;12.480;2024-02-23T04:08:12;99843.75;;;8.64;100.00
40998;BME280;26740;45.944;12.480;2024-02-23T04:10:38;99837.50;;;8.79;100.00
40998;BME280;26740;45.944;12.480;2024-02-23T04:13:04;99839.72;;;8.77;100.00
40998;BME280;26740;45.944;12.480;2024-02-23T04:15:30;99836.06;;;8.71;100.00
40998;BME280;26740;45.944;12.480;2024-02-23T04:17:55;99830.25;;;8.73;100.00
40998;BME280;26740;45.944;12.480;2024-02-23T04:20:21;99824.16;;;8.71;100.00
40998;BME280;26740;45.944;12.480;2024-02-23T04:22:47;99830.81;;;8.75;100.00
40998;BME280;26740;45.944;12.480;2024-02-23T04:25:12;99824.47;;;8.75;100.00
40998;BME280;26740;45.944;12.480;2024-02-23T04:27:38;99816.19;;;8.80;100.00
40998;BME280;26740;45.944;12.480;2024-02-23T04:30:04;99816.75;;;8.82;100.00
40998;BME280;26740;45.944;12.480;2024-02-23T04:32:31;99818.50;;;8.93;100.00
40998;BME280;26740;45.944;12.480;2024-02-23T04:34:56;99811.28;;;8.92;100.00
40998;BME280;26740;45.944;12.480;2024-02-23T04:37:22;99809.94;;;9.00;100.00
40998;BME280;26740;45.944;12.480;2024-02-23T04:39:48;99802.75;;;8.99;100.00
40998;BME280;26740;45.944;12.480;2024-02-23T04:42:13;99804.38;;;8.89;100.00
40998;BME280;26740;45.944;12.480;2024-02-23T04:44:41;99792.81;;;9.03;100.00
40998;BME280;26740;45.944;12.480;2024-02-23T04:47:07;99799.72;;;9.00;100.00
40998;BME280;26740;45.944;12.480;2024-02-23T04:49:33;99786.22;;;9.09;100.00
40998;BME280;26740;45.944;12.480;2024-02-23T04:51:58;99789.00;;;9.14;100.00
40998;BME280;26740;45.944;12.480;2024-02-23T04:54:24;99790.13;;;9.18;100.00
40998;BME280;26740;45.944;12.480;2024-02-23T04:56:49;99789.28;;;9.13;100.00
40998;BME280;26740;45.944;12.480;2024-02-23T04:59:16;99784.81;;;9.11;100.00
40998;BME280;26740;45.944;12.480;2024-02-23T05:01:41;99777.66;;;9.21;100.00
40998;BME280;26740;45.944;12.480;2024-02-23T05:04:08;99779.94;;;9.29;100.00
40998;BME280;26740;45.944;12.480;2024-02-23T05:06:34;99785.44;;;9.24;100.00
40998;BME280;26740;45.944;12.480;2024-02-23T05:09:01;99781.00;;;9.23;100.00
40998;BME280;26740;45.944;12.480;2024-02-23T05:11:27;99791.22;;;9.17;100.00
40998;BME280;26740;45.944;12.480;2024-02-23T05:13:52;99789.81;;;9.09;100.00
40998;BME280;26740;45.944;12.480;2024-02-23T05:16:18;99778.16;;;9.07;100.00
40998;BME280;26740;45.944;12.480;2024-02-23T05:18:43;99786.78;;;9.11;100.00
40998;BME280;26740;45.944;12.480;2024-02-23T05:21:12;99789.59;;;9.21;100.00
40998;BME280;26740;45.944;12.480;2024-02-23T05:23:38;99789.28;;;9.23;100.00
40998;BME280;26740;45.944;12.480;2024-02-23T05:26:03;99784.03;;;9.16;100.00
40998;BME280;26740;45.944;12.480;2024-02-23T05:28:29;99781.25;;;9.16;100.00
40998;BME280;26740;45.944;12.480;2024-02-23T05:30:54;99793.41;;;9.10;100.00
40998;BME280;26740;45.944;12.480;2024-02-23T05:33:22;99787.88;;;9.15;100.00
40998;BME280;26740;45.944;12.480;2024-02-23T05:35:49;99784.59;;;9.18;100.00
40998;BME280;26740;45.944;12.480;2024-02-23T05:38:15;99783.41;;;9.04;100.00
40998;BME280;26740;45.944;12.480;2024-02-23T05:40:41;99776.53;;;9.17;100.00
40998;BME280;26740;45.944;12.480;2024-02-23T05:43:07;99774.31;;;9.14;100.00
40998;BME280;26740;45.944;12.480;2024-02-23T05:45:33;99768.75;;;9.08;100.00
40998;BME280;26740;45.944;12.480;2024-02-23T05:47:58;99766.53;;;9.10;100.00
40998;BME280;26740;45.944;12.480;2024-02-23T05:50:24;99752.72;;;9.16;100.00
40998;BME280;26740;45.944;12.480;2024-02-23T05:52:49;99763.19;;;9.08;100.00
40998;BME280;26740;45.944;12.480;2024-02-23T05:55:15;99758.44;;;8.94;100.00
40998;BME280;26740;45.944;12.480;2024-02-23T05:57:41;99759.78;;;8.86;100.00
40998;BME280;26740;45.944;12.480;2024-02-23T06:00:08;99763.41;;;8.91;100.00
40998;BME280;26740;45.944;12.480;2024-02-23T06:02:33;99750.38;;;8.92;100.00
40998;BME280;26740;45.944;12.480;2024-02-23T06:04:59;99749.63;;;9.02;100.00
40998;BME280;26740;45.944;12.480;2024-02-23T06:07:25;99760.38;;;8.93;100.00
40998;BME280;26740;45.944;12.480;2024-02-23T06:09:56;99746.53;;;8.93;100.00
40998;BME280;26740;45.944;12.480;2024-02-23T06:12:24;99744.88;;;8.97;100.00
40998;BME280;26740;45.944;12.480;2024-02-23T06:14:51;99758.41;;;8.88;100.00
40998;BME280;26740;45.944;12.480;2024-02-23T06:17:16;99757.56;;;8.88;100.00
40998;BME280;26740;45.944;12.480;2024-02-23T06:19:42;99752.63;;;8.95;100.00
40998;BME280;26740;45.944;12.480;2024-02-23T06:22:08;99754.84;;;8.93;100.00
40998;BME280;26740;45.944;12.480;2024-02-23T06:24:35;99754.53;;;8.95;100.00
40998;BME280;26740;45.944;12.480;2024-02-23T06:27:01;99745.19;;;9.01;100.00
40998;BME280;26740;45.944;12.480;2024-02-23T06:29:29;99736.31;;;8.99;100.00
40998;BME280;26740;45.944;12.480;2024-02-23T06:31:55;99739.66;;;9.06;100.00
40998;BME280;26740;45.944;12.480;2024-02-23T06:34:21;99740.69;;;8.95;100.00
40998;BME280;26740;45.944;12.480;2024-02-23T06:36:46;99726.28;;;8.92;100.00
40998;BME280;26740;45.944;12.480;2024-02-23T06:39:12;99723.47;;;8.77;100.00
40998;BME280;26740;45.944;12.480;2024-02-23T06:41:38;99696.66;;;8.88;100.00
40998;BME280;26740;45.944;12.480;2024-02-23T06:44:04;99702.97;;;8.78;100.00
40998;BME280;26740;45.944;12.480;2024-02-23T06:46:30;99705.13;;;8.66;100.00
40998;BME280;26740;45.944;12.480;2024-02-23T06:48:56;99700.16;;;8.68;100.00
40998;BME280;26740;45.944;12.480;2024-02-23T06:51:21;99696.25;;;8.64;100.00
40998;BME280;26740;45.944;12.480;2024-02-23T06:53:47;99688.78;;;8.64;100.00
40998;BME280;26740;45.944;12.480;2024-02-23T06:56:13;99680.75;;;8.63;100.00
40998;BME280;26740;45.944;12.480;2024-02-23T06:58:39;99676.63;;;8.65;100.00
40998;BME280;26740;45.944;12.480;2024-02-23T07:01:05;99676.63;;;8.65;100.00
40998;BME280;26740;45.944;12.480;2024-02-23T07:03:36;99671.69;;;8.72;100.00
40998;BME280;26740;45.944;12.480;2024-02-23T07:06:03;99670.84;;;8.72;100.00
40998;BME280;26740;45.944;12.480;2024-02-23T07:08:29;99680.50;;;8.69;100.00
40998;BME280;26740;45.944;12.480;2024-02-23T07:10:55;99671.44;;;8.79;100.00
40998;BME280;26740;45.944;12.480;2024-02-23T07:13:21;99663.97;;;8.80;100.00
40998;BME280;26740;45.944;12.480;2024-02-23T07:15:46;99670.59;;;8.79;100.00
40998;BME280;26740;45.944;12.480;2024-02-23T07:18:12;99658.66;;;8.73;100.00
40998;BME280;26740;45.944;12.480;2024-02-23T07:20:38;99662.81;;;8.70;100.00
40998;BME280;26740;45.944;12.480;2024-02-23T07:23:04;99654.00;;;8.73;100.00
40998;BME280;26740;45.944;12.480;2024-02-23T07:25:30;99665.59;;;8.70;100.00
40998;BME280;26740;45.944;12.480;2024-02-23T07:27:56;99656.44;;;8.70;100.00
40998;BME280;26740;45.944;12.480;2024-02-23T07:30:22;99652.28;;;8.67;100.00
40998;BME280;26740;45.944;12.480;2024-02-23T07:32:48;99663.34;;;8.67;100.00
40998;BME280;26740;45.944;12.480;2024-02-23T07:35:13;99663.63;;;8.66;100.00
40998;BME280;26740;45.944;12.480;2024-02-23T07:37:39;99663.88;;;8.64;100.00
40998;BME280;26740;45.944;12.480;2024-02-23T07:40:05;99660.00;;;8.60;100.00
40998;BME280;26740;45.944;12.480;2024-02-23T07:42:34;99666.09;;;8.62;100.00
40998;BME280;26740;45.944;12.480;2024-02-23T07:45:06;99663.06;;;8.64;100.00
40998;BME280;26740;45.944;12.480;2024-02-23T07:47:32;99660.06;;;8.70;100.00
40998;BME280;26740;45.944;12.480;2024-02-23T07:49:58;99648.44;;;8.73;100.00
40998;BME280;26740;45.944;12.480;2024-02-23T07:52:24;99646.97;;;8.61;100.00
40998;BME280;26740;45.944;12.480;2024-02-23T07:54:52;99637.31;;;8.58;100.00
40998;BME280;26740;45.944;12.480;2024-02-23T07:57:18;99633.97;;;8.56;100.00
40998;BME280;26740;45.944;12.480;2024-02-23T07:59:44;99620.16;;;8.61;100.00
40998;BME280;26740;45.944;12.480;2024-02-23T08:02:10;99638.13;;;8.59;100.00
40998;BME280;26740;45.944;12.480;2024-02-23T08:04:36;99634.81;;;8.62;100.00
40998;BME280;26740;45.944;12.480;2024-02-23T08:07:04;99618.84;;;8.74;100.00
40998;BME280;26740;45.944;12.480;2024-02-23T08:09:29;99591.97;;;8.75;100.00
40998;BME280;26740;45.944;12.480;2024-02-23T08:11:55;99651.28;;;8.94;100.00
40998;BME280;26740;45.944;12.480;2024-02-23T08:14:21;99612.53;;;8.94;100.00
40998;BME280;26740;45.944;12.480;2024-02-23T08:16:46;99642.91;;;8.79;100.00
40998;BME280;26740;45.944;12.480;2024-02-23T08:19:12;99624.91;;;8.76;100.00
40998;BME280;26740;45.944;12.480;2024-02-23T08:21:38;99622.41;;;8.75;100.00
40998;BME280;26740;45.944;12.480;2024-02-23T08:24:04;99616.63;;;8.76;100.00
40998;BME280;26740;45.944;12.480;2024-02-23T08:26:30;99639.06;;;8.80;100.00
40998;BME280;26740;45.944;12.480;2024-02-23T08:28:56;99634.59;;;8.79;100.00
40998;BME280;26740;45.944;12.480;2024-02-23T08:31:21;99608.66;;;8.95;100.00
40998;BME280;26740;45.944;12.480;2024-02-23T08:33:47;99611.63;;;8.78;100.00
40998;BME280;26740;45.944;12.480;2024-02-23T08:36:13;99607.81;;;8.95;100.00
40998;BME280;26740;45.944;12.480;2024-02-23T08:38:38;99614.22;;;9.05;100.00
40998;BME280;26740;45.944;12.480;2024-02-23T08:41:04;99612.03;;;9.07;100.00
40998;BME280;26740;45.944;12.480;2024-02-23T08:43:30;99612.88;;;9.18;100.00
40998;BME280;26740;45.944;12.480;2024-02-23T08:45:55;99605.38;;;9.19;100.00
40998;BME280;26740;45.944;12.480;2024-02-23T08:48:21;99602.91;;;9.22;100.00
40998;BME280;26740;45.944;12.480;2024-02-23T08:50:47;99607.59;;;9.17;100.00
40998;BME280;26740;45.944;12.480;2024-02-23T08:53:12;99587.13;;;9.13;100.00
40998;BME280;26740;45.944;12.480;2024-02-23T08:55:38;99583.78;;;9.16;100.00
40998;BME280;26740;45.944;12.480;2024-02-23T08:58:04;99588.22;;;9.22;100.00
40998;BME280;26740;45.944;12.480;2024-02-23T09:00:31;99600.13;;;9.22;100.00
40998;BME280;26740;45.944;12.480;2024-02-23T09:02:57;99592.38;;;9.29;100.00
40998;BME280;26740;45.944;12.480;2024-02-23T09:05:23;99583.53;;;9.33;100.00
40998;BME280;26740;45.944;12.480;2024-02-23T09:07:48;99584.91;;;9.25;100.00
40998;BME280;26740;45.944;12.480;2024-02-23T09:10:14;99576.03;;;9.23;100.00
40998;BME280;26740;45.944;12.480;2024-02-23T09:12:39;99578.25;;;9.26;100.00
40998;BME280;26740;45.944;12.480;2024-02-23T09:15:05;99568.03;;;9.21;100.00
40998;BME280;26740;45.944;12.480;2024-02-23T09:17:31;99576.88;;;9.23;100.00
40998;BME280;26740;45.944;12.480;2024-02-23T09:19:57;99579.66;;;9.23;100.00
40998;BME280;26740;45.944;12.480;2024-02-23T09:22:22;99589.06;;;9.33;100.00
40998;BME280;26740;45.944;12.480;2024-02-23T09:24:49;99587.13;;;9.33;100.00
40998;BME280;26740;45.944;12.480;2024-02-23T09:27:14;99583.00;;;9.36;100.00
40998;BME280;26740;45.944;12.480;2024-02-23T09:29:41;99571.34;;;9.28;100.00
40998;BME280;26740;45.944;12.480;2024-02-23T09:32:09;99569.66;;;9.22;100.00
40998;BME280;26740;45.944;12.480;2024-02-23T09:34:35;99579.63;;;9.13;100.00
40998;BME280;26740;45.944;12.480;2024-02-23T09:37:01;99587.94;;;9.13;100.00
40998;BME280;26740;45.944;12.480;2024-02-23T09:39:27;99576.84;;;9.03;100.00
40998;BME280;26740;45.944;12.480;2024-02-23T09:41:55;99557.72;;;9.06;100.00
40998;BME280;26740;45.944;12.480;2024-02-23T09:44:22;99550.84;;;9.14;100.00
40998;BME280;26740;45.944;12.480;2024-02-23T09:46:48;99549.66;;;8.95;100.00
40998;BME280;26740;45.944;12.480;2024-02-23T09:49:15;99549.97;;;9.03;100.00
40998;BME280;26740;45.944;12.480;2024-02-23T09:51:44;99542.50;;;9.19;100.00
40998;BME280;26740;45.944;12.480;2024-02-23T09:54:10;99555.53;;;9.24;100.00
40998;BME280;26740;45.944;12.480;2024-02-23T09:56:36;99547.22;;;9.14;100.00
40998;BME280;26740;45.944;12.480;2024-02-23T09:59:03;99556.66;;;9.13;100.00
40998;BME280;26740;45.944;12.480;2024-02-23T10:01:31;99553.88;;;9.23;100.00
40998;BME280;26740;45.944;12.480;2024-02-23T10:03:59;99533.38;;;9.29;100.00
40998;BME280;26740;45.944;12.480;2024-02-23T10:06:26;99542.25;;;9.36;100.00
40998;BME280;26740;45.944;12.480;2024-02-23T10:08:52;99532.00;;;9.26;100.00
40998;BME280;26740;45.944;12.480;2024-02-23T10:11:23;99532.00;;;9.26;100.00
40998;BME280;26740;45.944;12.480;2024-02-23T10:13:49;99521.19;;;9.09;100.00
40998;BME280;26740;45.944;12.480;2024-02-23T10:16:20;99511.50;;;9.12;100.00
40998;BME280;26740;45.944;12.480;2024-02-23T10:18:47;99509.00;;;9.26;100.00
40998;BME280;26740;45.944;12.480;2024-02-23T10:21:14;99507.38;;;9.30;100.00
40998;BME280;26740;45.944;12.480;2024-02-23T10:23:41;99496.84;;;9.32;100.00
40998;BME280;26740;45.944;12.480;2024-02-23T10:26:08;99508.47;;;9.29;100.00
40998;BME280;26740;45.944;12.480;2024-02-23T10:28:37;99504.56;;;9.35;100.00
40998;BME280;26740;45.944;12.480;2024-02-23T10:31:06;99494.59;;;9.24;100.00
40998;BME280;26740;45.944;12.480;2024-02-23T10:33:32;99499.31;;;9.08;100.00
40998;BME280;26740;45.944;12.480;2024-02-23T10:35:59;99490.19;;;9.02;100.00
40998;BME280;26740;45.944;12.480;2024-02-23T10:38:32;99467.44;;;9.10;100.00
40998;BME280;26740;45.944;12.480;2024-02-23T10:40:58;99470.22;;;9.31;100.00
40998;BME280;26740;45.944;12.480;2024-02-23T10:43:51;99477.44;;;9.22;100.00
40998;BME280;26740;45.944;12.480;2024-02-23T10:46:18;99476.88;;;9.20;100.00
40998;BME280;26740;45.944;12.480;2024-02-23T10:48:45;99474.13;;;9.09;100.00
40998;BME280;26740;45.944;12.480;2024-02-23T10:51:13;99466.63;;;9.25;100.00
40998;BME280;26740;45.944;12.480;2024-02-23T10:53:40;99467.19;;;9.12;100.00
40998;BME280;26740;45.944;12.480;2024-02-23T10:56:07;99465.00;;;9.09;100.00
40998;BME280;26740;45.944;12.480;2024-02-23T10:58:33;99472.16;;;9.10;100.00
40998;BME280;26740;45.944;12.480;2024-02-23T11:01:00;99468.03;;;9.13;100.00
40998;BME280;26740;45.944;12.480;2024-02-23T11:03:30;99463.88;;;9.30;100.00
40998;BME280;26740;45.944;12.480;2024-02-23T11:05:56;99457.47;;;9.40;100.00
40998;BME280;26740;45.944;12.480;2024-02-23T11:08:22;99466.06;;;9.39;100.00
40998;BME280;26740;45.944;12.480;2024-02-23T11:10:51;99456.91;;;9.43;100.00
40998;BME280;26740;45.944;12.480;2024-02-23T11:13:17;99452.47;;;9.53;100.00
40998;BME280;26740;45.944;12.480;2024-02-23T11:15:43;99445.81;;;9.59;100.00
40998;BME280;26740;45.944;12.480;2024-02-23T11:18:41;99442.53;;;9.31;100.00
40998;BME280;26740;45.944;12.480;2024-02-23T11:21:10;99459.97;;;9.32;100.00
40998;BME280;26740;45.944;12.480;2024-02-23T11:23:48;99474.94;;;9.30;100.00
40998;BME280;26740;45.944;12.480;2024-02-23T11:26:15;99473.28;;;9.35;100.00
40998;BME280;26740;45.944;12.480;2024-02-23T11:28:51;99458.59;;;9.49;100.00
40998;BME280;26740;45.944;12.480;2024-02-23T11:31:20;99453.34;;;9.27;100.00
40998;BME280;26740;45.944;12.480;2024-02-23T11:33:54;99445.31;;;9.21;100.00
40998;BME280;26740;45.944;12.480;2024-02-23T11:38:52;99438.41;;;9.23;100.00
40998;BME280;26740;45.944;12.480;2024-02-23T11:41:21;99427.56;;;9.37;100.00
40998;BME280;26740;45.944;12.480;2024-02-23T11:43:47;99434.47;;;9.45;100.00
40998;BME280;26740;45.944;12.480;2024-02-23T11:46:18;99439.16;;;9.55;100.00
40998;BME280;26740;45.944;12.480;2024-02-23T11:48:44;99424.97;;;9.72;100.00
40998;BME280;26740;45.944;12.480;2024-02-23T11:51:15;99419.97;;;9.74;100.00
40998;BME280;26740;45.944;12.480;2024-02-23T11:53:41;99423.59;;;9.74;100.00
40998;BME280;26740;45.944;12.480;2024-02-23T11:56:07;99425.25;;;9.75;100.00
40998;BME280;26740;45.944;12.480;2024-02-23T11:58:33;99414.19;;;9.65;100.00
40998;BME280;26740;45.944;12.480;2024-02-23T12:01:03;99408.63;;;9.75;100.00
40998;BME280;26740;45.944;12.480;2024-02-23T12:03:29;99401.91;;;9.92;100.00
40998;BME280;26740;45.944;12.480;2024-02-23T12:05:58;99402.44;;;9.99;100.00
40998;BME280;26740;45.944;12.480;2024-02-23T12:08:25;99401.63;;;9.88;100.00
40998;BME280;26740;45.944;12.480;2024-02-23T12:10:53;99393.94;;;9.75;100.00
40998;BME280;26740;45.944;12.480;2024-02-23T12:13:19;99384.75;;;9.79;100.00
40998;BME280;26740;45.944;12.480;2024-02-23T12:15:45;99389.13;;;9.96;100.00
40998;BME280;26740;45.944;12.480;2024-02-23T12:18:11;99387.44;;;10.00;100.00
40998;BME280;26740;45.944;12.480;2024-02-23T12:20:37;99373.09;;;9.87;100.00
40998;BME280;26740;45.944;12.480;2024-02-23T12:23:02;99380.22;;;10.04;100.00
40998;BME280;26740;45.944;12.480;2024-02-23T12:25:28;99381.34;;;10.03;100.00
40998;BME280;26740;45.944;12.480;2024-02-23T12:27:55;99369.69;;;10.06;100.00
40998;BME280;26740;45.944;12.480;2024-02-23T12:30:22;99369.69;;;10.06;100.00
40998;BME280;26740;45.944;12.480;2024-02-23T12:32:48;99371.84;;;10.14;100.00
40998;BME280;26740;45.944;12.480;2024-02-23T12:35:14;99373.06;;;9.93;100.00
40998;BME280;26740;45.944;12.480;2024-02-23T12:37:43;99380.78;;;10.06;100.00
40998;BME280;26740;45.944;12.480;2024-02-23T12:40:09;99373.88;;;9.98;100.00
40998;BME280;26740;45.944;12.480;2024-02-23T12:42:35;99381.81;;;10.15;100.00
40998;BME280;26740;45.944;12.480;2024-02-23T12:45:01;99381.72;;;10.36;100.00
40998;BME280;26740;45.944;12.480;2024-02-23T12:47:26;99384.03;;;10.18;100.00